createdAt,value
2017-07-16T00:00:38.757Z,77.30
2017-07-16T00:03:11.116Z,77.23
2017-07-16T00:05:43.520Z,77.01
2017-07-16T00:08:15.945Z,77.63
2017-07-16T00:10:48.237Z,77.00
2017-07-16T00:13:20.577Z,77.00
2017-07-16T00:15:52.989Z,77.15
2017-07-16T00:18:25.355Z,77.69
2017-07-16T00:20:57.738Z,77.47
2017-07-16T00:23:30.063Z,77.42
2017-07-16T00:26:02.602Z,77.66
2017-07-16T00:28:34.854Z,77.82
2017-07-16T00:31:07.209Z,78.00
2017-07-16T00:33:39.581Z,78.26
2017-07-16T00:36:11.998Z,78.27
2017-07-16T00:38:44.466Z,78.48
2017-07-16T00:41:16.813Z,78.70
2017-07-16T00:43:49.069Z,78.89
2017-07-16T00:46:21.591Z,79.19
2017-07-16T00:48:53.925Z,79.20
2017-07-16T00:51:26.402Z,79.26
2017-07-16T00:53:58.860Z,79.24
2017-07-16T00:56:31.234Z,79.02
2017-07-16T00:59:03.528Z,79.04
2017-07-16T01:01:35.940Z,78.75
2017-07-16T01:04:08.245Z,78.98
2017-07-16T01:06:40.662Z,79.32
2017-07-16T01:09:13.009Z,79.17
2017-07-16T01:11:45.378Z,79.19
2017-07-16T01:14:17.629Z,79.25
2017-07-16T01:16:50.415Z,79.28
2017-07-16T01:19:22.502Z,79.20
2017-07-16T01:21:54.830Z,78.88
2017-07-16T01:24:27.229Z,79.11
2017-07-16T01:26:59.542Z,79.24
2017-07-16T01:29:31.881Z,79.04
2017-07-16T01:32:04.257Z,78.83
2017-07-16T01:34:36.665Z,78.70
2017-07-16T01:37:09.020Z,78.60
2017-07-16T01:39:41.373Z,78.56
2017-07-16T01:42:13.794Z,78.61
2017-07-16T01:44:46.213Z,78.42
2017-07-16T01:47:18.842Z,78.13
2017-07-16T01:49:51.096Z,78.29
2017-07-16T01:52:24.540Z,78.30
2017-07-16T01:54:56.845Z,78.20
2017-07-16T01:57:29.330Z,78.27
2017-07-16T02:00:01.643Z,78.52
2017-07-16T02:02:34.022Z,78.64
2017-07-16T02:05:06.323Z,78.69
2017-07-16T02:07:38.730Z,78.28
2017-07-16T02:10:11.285Z,78.46
2017-07-16T02:12:43.482Z,78.46
2017-07-16T02:15:15.874Z,78.22
2017-07-16T02:17:48.149Z,78.24
2017-07-16T02:20:20.541Z,78.30
2017-07-16T02:22:52.968Z,78.19
2017-07-16T02:25:25.328Z,78.31
2017-07-16T02:27:57.735Z,78.17
2017-07-16T02:30:30.165Z,78.22
2017-07-16T02:33:02.560Z,78.25
2017-07-16T02:35:34.866Z,78.11
2017-07-16T02:38:07.229Z,78.45
2017-07-16T02:40:39.692Z,78.52
2017-07-16T02:43:13.080Z,78.42
2017-07-16T02:45:45.403Z,78.51
2017-07-16T02:48:17.841Z,78.80
2017-07-16T02:50:50.201Z,78.69
2017-07-16T02:53:22.541Z,78.45
2017-07-16T02:55:54.834Z,78.74
2017-07-16T02:58:27.214Z,78.93
2017-07-16T03:00:59.645Z,79.02
2017-07-16T03:03:31.976Z,78.93
2017-07-16T03:06:04.625Z,78.86
2017-07-16T03:08:36.865Z,78.82
2017-07-16T03:11:09.268Z,79.10
2017-07-16T03:13:41.665Z,79.12
2017-07-16T03:16:13.966Z,79.07
2017-07-16T03:18:46.261Z,78.91
2017-07-16T03:21:18.592Z,78.66
2017-07-16T03:23:50.890Z,78.06
2017-07-16T03:26:23.297Z,77.56
2017-07-16T03:28:55.697Z,77.66
2017-07-16T03:31:28.108Z,77.18
2017-07-16T03:34:01.452Z,77.39
2017-07-16T03:36:34.110Z,77.84
2017-07-16T03:39:06.585Z,77.81
2017-07-16T03:41:38.942Z,77.82
2017-07-16T03:44:11.237Z,77.78
2017-07-16T03:46:43.649Z,77.48
2017-07-16T03:49:16.053Z,77.10
2017-07-16T03:51:48.278Z,77.07
2017-07-16T03:54:20.661Z,76.86
2017-07-16T03:56:52.949Z,76.99
2017-07-16T03:59:25.413Z,77.06
2017-07-16T04:01:57.850Z,76.72
2017-07-16T04:04:30.272Z,76.68
2017-07-16T04:07:02.679Z,76.66
2017-07-16T04:09:35.021Z,76.53
2017-07-16T04:12:07.441Z,76.42
2017-07-16T04:14:40.134Z,76.06
2017-07-16T04:17:12.289Z,76.11
2017-07-16T04:19:44.737Z,76.24
2017-07-16T04:22:17.020Z,76.24
2017-07-16T04:24:49.318Z,76.05
2017-07-16T04:27:21.702Z,75.74
2017-07-16T04:29:54.117Z,74.67
2017-07-16T04:32:26.590Z,74.60
2017-07-16T04:34:58.958Z,74.55
2017-07-16T04:37:31.312Z,74.42
2017-07-16T04:40:03.809Z,74.46
2017-07-16T04:42:36.176Z,74.04
2017-07-16T04:45:08.550Z,74.16
2017-07-16T04:47:40.897Z,73.89
2017-07-16T04:50:13.489Z,74.06
2017-07-16T04:52:45.865Z,73.73
2017-07-16T04:55:18.153Z,73.56
2017-07-16T04:57:50.705Z,73.42
2017-07-16T05:00:23.178Z,73.67
2017-07-16T05:02:55.537Z,73.40
2017-07-16T05:05:27.945Z,73.27
2017-07-16T05:08:00.387Z,73.12
2017-07-16T05:10:33.116Z,73.51
2017-07-16T05:13:05.147Z,73.31
2017-07-16T05:15:37.634Z,72.48
2017-07-16T05:18:10.004Z,72.61
2017-07-16T05:20:42.509Z,72.48
2017-07-16T05:23:14.739Z,71.80
2017-07-16T05:25:47.100Z,71.19
2017-07-16T05:28:19.541Z,71.22
2017-07-16T05:30:51.898Z,71.31
2017-07-16T05:33:24.294Z,71.13
2017-07-16T05:35:56.665Z,70.77
2017-07-16T05:38:29.202Z,70.41
2017-07-16T05:41:01.605Z,70.50
2017-07-16T05:43:34.238Z,70.40
2017-07-16T05:46:06.333Z,70.45
2017-07-16T05:48:38.804Z,70.54
2017-07-16T05:51:11.236Z,70.15
2017-07-16T05:53:43.661Z,69.96
2017-07-16T05:56:16.030Z,68.96
2017-07-16T05:58:48.453Z,69.23
2017-07-16T06:01:21.810Z,69.40
2017-07-16T06:03:54.160Z,69.20
2017-07-16T06:06:26.630Z,68.98
2017-07-16T06:08:58.922Z,68.56
2017-07-16T06:11:31.375Z,68.74
2017-07-16T06:14:04.158Z,68.85
2017-07-16T06:16:36.264Z,69.29
2017-07-16T06:19:08.621Z,69.33
2017-07-16T06:21:41.034Z,69.23
2017-07-16T06:24:13.385Z,68.73
2017-07-16T06:26:45.791Z,69.05
2017-07-16T06:29:18.093Z,69.13
2017-07-16T06:31:50.404Z,69.16
2017-07-16T06:34:22.581Z,69.61
2017-07-16T06:36:55.046Z,69.55
2017-07-16T06:39:27.470Z,69.69
2017-07-16T06:41:59.812Z,69.75
2017-07-16T06:44:32.138Z,69.78
2017-07-16T06:47:04.590Z,70.36
2017-07-16T06:49:36.965Z,69.97
2017-07-16T06:52:09.437Z,70.04
2017-07-16T06:54:41.741Z,70.25
2017-07-16T06:57:14.145Z,69.73
2017-07-16T06:59:46.977Z,69.58
2017-07-16T07:02:18.924Z,69.25
2017-07-16T07:04:51.248Z,68.72
2017-07-16T07:07:23.647Z,68.11
2017-07-16T07:09:55.993Z,67.20
2017-07-16T07:12:28.306Z,67.69
2017-07-16T07:15:00.622Z,67.19
2017-07-16T07:17:33.005Z,66.70
2017-07-16T07:20:05.281Z,67.21
2017-07-16T07:22:37.661Z,66.60
2017-07-16T07:25:09.906Z,67.21
2017-07-16T07:27:42.419Z,67.03
2017-07-16T07:30:14.853Z,67.07
2017-07-16T07:32:47.244Z,65.90
2017-07-16T07:35:19.698Z,66.66
2017-07-16T07:37:52.078Z,66.65
2017-07-16T07:40:24.646Z,67.29
2017-07-16T07:42:56.760Z,67.07
2017-07-16T07:45:29.089Z,67.33
2017-07-16T07:48:01.459Z,66.66
2017-07-16T07:50:33.900Z,66.69
2017-07-16T07:53:06.332Z,66.95
2017-07-16T07:55:38.686Z,66.93
2017-07-16T07:58:11.121Z,66.66
2017-07-16T08:00:43.440Z,65.78
2017-07-16T08:03:15.934Z,65.79
2017-07-16T08:05:48.195Z,65.79
2017-07-16T08:08:20.513Z,65.80
2017-07-16T08:10:52.785Z,65.20
2017-07-16T08:13:25.322Z,64.15
2017-07-16T08:15:57.607Z,64.10
2017-07-16T08:18:29.974Z,64.83
2017-07-16T08:21:02.722Z,64.52
2017-07-16T08:23:34.855Z,65.00
2017-07-16T08:26:07.149Z,65.57
2017-07-16T08:28:39.559Z,65.91
2017-07-16T08:31:11.933Z,65.81
2017-07-16T08:33:44.407Z,65.65
2017-07-16T08:36:16.707Z,65.62
2017-07-16T08:38:49.089Z,64.55
2017-07-16T08:41:21.410Z,63.18
2017-07-16T08:43:53.777Z,64.44
2017-07-16T08:46:26.162Z,64.84
2017-07-16T08:48:58.434Z,64.65
2017-07-16T08:51:30.750Z,65.04
2017-07-16T08:54:03.272Z,64.92
2017-07-16T08:56:35.446Z,65.17
2017-07-16T08:59:07.733Z,65.60
2017-07-16T09:01:39.979Z,66.29
2017-07-16T09:04:13.319Z,67.75
2017-07-16T09:06:45.759Z,67.68
2017-07-16T09:09:18.068Z,67.85
2017-07-16T09:11:50.337Z,68.04
2017-07-16T09:14:22.632Z,68.67
2017-07-16T09:16:54.879Z,68.66
2017-07-16T09:19:27.271Z,68.84
2017-07-16T09:21:59.598Z,68.39
2017-07-16T09:24:32.036Z,67.76
2017-07-16T09:27:04.310Z,67.58
2017-07-16T09:29:36.645Z,67.40
2017-07-16T09:32:08.813Z,67.15
2017-07-16T09:34:41.085Z,68.25
2017-07-16T09:37:13.305Z,68.88
2017-07-16T09:39:45.623Z,67.94
2017-07-16T09:42:17.893Z,67.77
2017-07-16T09:44:50.173Z,68.60
2017-07-16T09:47:22.541Z,69.19
2017-07-16T09:49:54.894Z,68.63
2017-07-16T09:52:27.304Z,69.17
2017-07-16T09:54:59.762Z,69.43
2017-07-16T09:57:32.131Z,69.29
2017-07-16T10:00:04.517Z,70.36
2017-07-16T10:02:36.812Z,71.27
2017-07-16T10:05:09.076Z,71.21
2017-07-16T10:07:41.423Z,71.78
2017-07-16T10:10:13.706Z,72.72
2017-07-16T10:12:46.051Z,72.66
2017-07-16T10:15:18.405Z,72.74
2017-07-16T10:17:50.815Z,73.53
2017-07-16T10:20:23.452Z,73.22
2017-07-16T10:22:55.522Z,73.31
2017-07-16T10:25:27.805Z,73.36
2017-07-16T10:27:59.969Z,73.18
2017-07-16T10:30:32.197Z,72.88
2017-07-16T10:33:04.662Z,72.62
2017-07-16T10:35:36.746Z,72.54
2017-07-16T10:38:09.181Z,71.85
2017-07-16T10:40:41.155Z,71.88
2017-07-16T10:43:13.494Z,72.33
2017-07-16T10:45:45.769Z,72.34
2017-07-16T10:48:18.151Z,72.27
2017-07-16T10:50:51.343Z,72.25
2017-07-16T10:53:23.919Z,72.22
2017-07-16T10:55:56.202Z,72.60
2017-07-16T10:58:28.549Z,72.72
2017-07-16T11:01:01.486Z,73.35
2017-07-16T11:03:34.412Z,73.24
2017-07-16T11:06:07.073Z,72.90
2017-07-16T11:08:38.930Z,72.22
2017-07-16T11:11:11.475Z,71.71
2017-07-16T11:13:43.901Z,71.57
2017-07-16T11:16:16.346Z,70.93
2017-07-16T11:18:48.651Z,71.01
2017-07-16T11:21:21.146Z,70.75
2017-07-16T11:23:53.518Z,70.10
2017-07-16T11:26:26.274Z,69.98
2017-07-16T11:28:58.132Z,69.47
2017-07-16T11:31:30.376Z,69.05
2017-07-16T11:34:02.750Z,68.91
2017-07-16T11:36:35.174Z,69.17
2017-07-16T11:39:07.402Z,68.83
2017-07-16T11:41:39.745Z,69.14
2017-07-16T11:44:12.181Z,69.00
2017-07-16T11:46:44.552Z,68.64
2017-07-16T11:49:16.781Z,68.67
2017-07-16T11:51:49.297Z,68.18
2017-07-16T11:54:21.639Z,67.27
2017-07-16T11:56:54.091Z,67.14
2017-07-16T11:59:26.350Z,66.96
2017-07-16T12:01:58.667Z,66.57
2017-07-16T12:04:31.016Z,65.30
2017-07-16T12:07:03.424Z,64.88
2017-07-16T12:09:35.698Z,64.70
2017-07-16T12:12:07.906Z,64.44
2017-07-16T12:14:40.290Z,64.02
2017-07-16T12:17:12.473Z,62.71
2017-07-16T12:19:44.811Z,60.85
2017-07-16T12:22:17.157Z,59.63
2017-07-16T12:24:49.471Z,59.31
2017-07-16T12:27:21.741Z,59.10
2017-07-16T12:29:54.025Z,59.20
2017-07-16T12:32:26.324Z,58.09
2017-07-16T12:34:58.677Z,58.28
2017-07-16T12:37:31.214Z,59.63
2017-07-16T12:40:03.481Z,60.05
2017-07-16T12:42:35.913Z,59.79
2017-07-16T12:45:08.234Z,59.71
2017-07-16T12:47:40.753Z,58.39
2017-07-16T12:50:12.992Z,58.95
2017-07-16T12:52:45.507Z,60.44
2017-07-16T12:55:17.946Z,60.61
2017-07-16T12:57:50.249Z,60.70
2017-07-16T13:00:22.665Z,61.19
2017-07-16T13:02:55.013Z,62.44
2017-07-16T13:05:27.447Z,63.43
2017-07-16T13:08:00.128Z,64.35
2017-07-16T13:10:31.989Z,64.08
2017-07-16T13:13:04.277Z,65.14
2017-07-16T13:15:36.539Z,64.44
2017-07-16T13:18:09.837Z,63.80
2017-07-16T13:20:42.522Z,63.68
2017-07-16T13:23:14.989Z,63.68
2017-07-16T13:25:47.193Z,62.69
2017-07-16T13:28:19.751Z,61.74
2017-07-16T13:30:52.154Z,62.27
2017-07-16T13:33:24.578Z,61.94
2017-07-16T13:35:56.952Z,62.23
2017-07-16T13:38:29.382Z,64.29
2017-07-16T13:41:01.665Z,64.65
2017-07-16T13:43:34.093Z,65.43
2017-07-16T13:46:06.410Z,65.84
2017-07-16T13:48:38.630Z,66.24
2017-07-16T13:51:11.349Z,65.43
2017-07-16T13:53:43.476Z,65.50
2017-07-16T13:56:15.894Z,65.89
2017-07-16T13:58:48.350Z,65.51
2017-07-16T14:01:20.774Z,66.00
2017-07-16T14:03:53.132Z,66.58
2017-07-16T14:06:25.591Z,67.75
2017-07-16T14:08:58.175Z,67.82
2017-07-16T14:11:30.300Z,68.20
2017-07-16T14:14:02.942Z,68.16
2017-07-16T14:16:35.310Z,68.37
2017-07-16T14:19:07.697Z,68.40
2017-07-16T14:21:40.394Z,69.02
2017-07-16T14:24:12.548Z,69.41
2017-07-16T14:26:44.991Z,69.68
2017-07-16T14:29:17.500Z,70.29
2017-07-16T14:31:49.778Z,70.31
2017-07-16T14:34:22.339Z,70.92
2017-07-16T14:36:54.551Z,71.55
2017-07-16T14:39:26.959Z,72.08
2017-07-16T14:41:59.292Z,73.00
2017-07-16T14:44:32.177Z,74.07
2017-07-16T14:47:04.097Z,74.86
2017-07-16T14:49:36.406Z,76.07
2017-07-16T14:52:08.670Z,76.98
2017-07-16T14:54:41.028Z,77.78
2017-07-16T14:57:13.462Z,77.77
2017-07-16T14:59:45.806Z,77.63
2017-07-16T15:02:18.320Z,77.60
2017-07-16T15:04:50.578Z,78.24
2017-07-16T15:07:22.950Z,78.45
2017-07-16T15:09:55.486Z,78.48
2017-07-16T15:12:27.773Z,78.69
2017-07-16T15:15:00.476Z,78.55
2017-07-16T15:17:32.723Z,79.52
2017-07-16T15:20:05.116Z,79.42
2017-07-16T15:22:37.552Z,79.63
2017-07-16T15:25:09.878Z,80.09
2017-07-16T15:27:42.291Z,80.41
2017-07-16T15:30:14.701Z,80.04
2017-07-16T15:32:47.101Z,78.04
2017-07-16T15:35:19.385Z,76.16
2017-07-16T15:37:52.973Z,74.83
2017-07-16T15:40:25.235Z,72.58
2017-07-16T15:42:57.556Z,71.37
2017-07-16T15:45:29.982Z,71.41
2017-07-16T15:48:02.308Z,71.19
2017-07-16T15:50:34.813Z,71.12
2017-07-16T15:53:06.802Z,71.66
2017-07-16T15:55:39.145Z,71.89
2017-07-16T15:58:11.407Z,71.16
2017-07-16T16:00:43.878Z,71.19
2017-07-16T16:03:16.159Z,71.45
2017-07-16T16:05:48.644Z,71.60
2017-07-16T16:08:21.126Z,71.36
2017-07-16T16:10:53.593Z,71.85
2017-07-16T16:13:25.807Z,72.18
2017-07-16T16:15:58.102Z,72.58
2017-07-16T16:18:30.422Z,72.46
2017-07-16T16:21:02.792Z,72.39
2017-07-16T16:23:35.061Z,72.27
2017-07-16T16:26:07.553Z,72.06
2017-07-16T16:28:40.742Z,71.90
2017-07-16T16:31:13.201Z,70.99
2017-07-16T16:33:45.456Z,71.01
2017-07-16T16:36:17.799Z,70.92
2017-07-16T16:38:50.282Z,71.87
2017-07-16T16:41:22.488Z,72.35
2017-07-16T16:43:54.798Z,72.36
2017-07-16T16:46:27.192Z,72.25
2017-07-16T16:48:59.517Z,72.36
2017-07-16T16:51:32.024Z,72.13
2017-07-16T16:54:04.238Z,72.50
2017-07-16T16:56:36.841Z,72.35
2017-07-16T16:59:09.173Z,72.14
2017-07-16T17:01:41.615Z,72.03
2017-07-16T17:04:13.822Z,71.81
2017-07-16T17:06:46.182Z,70.92
2017-07-16T17:09:18.613Z,70.89
2017-07-16T17:11:51.007Z,70.64
2017-07-16T17:14:23.450Z,70.54
2017-07-16T17:16:55.948Z,70.99
2017-07-16T17:19:28.206Z,71.11
2017-07-16T17:22:00.605Z,70.70
2017-07-16T17:24:32.921Z,70.84
2017-07-16T17:27:05.548Z,71.17
2017-07-16T17:29:37.920Z,71.90
2017-07-16T17:32:10.357Z,71.77
2017-07-16T17:34:42.624Z,71.83
2017-07-16T17:37:15.024Z,71.87
2017-07-16T17:39:47.295Z,71.65
2017-07-16T17:42:20.720Z,71.96
2017-07-16T17:44:53.225Z,72.96
2017-07-16T17:47:25.654Z,73.86
2017-07-16T17:49:57.994Z,74.80
2017-07-16T17:52:30.613Z,75.25
2017-07-16T17:55:02.946Z,74.91
2017-07-16T17:57:35.361Z,75.16
2017-07-16T18:00:07.634Z,75.29
2017-07-16T18:02:41.034Z,76.22
2017-07-16T18:05:13.458Z,76.06
2017-07-16T18:07:45.813Z,76.38
2017-07-16T18:10:18.033Z,76.49
2017-07-16T18:12:50.605Z,76.33
2017-07-16T18:15:23.042Z,76.52
2017-07-16T18:17:55.336Z,76.91
2017-07-16T18:20:27.603Z,77.48
2017-07-16T18:22:59.978Z,79.48
2017-07-16T18:25:32.254Z,81.97
2017-07-16T18:28:04.625Z,83.37
2017-07-16T18:30:37.082Z,85.13
2017-07-16T18:33:09.657Z,86.13
2017-07-16T18:35:42.017Z,87.09
2017-07-16T18:38:14.540Z,88.08
2017-07-16T18:40:46.794Z,88.59
2017-07-16T18:43:19.121Z,89.20
2017-07-16T18:45:51.437Z,89.59
2017-07-16T18:48:23.961Z,89.85
2017-07-16T18:50:56.392Z,89.92
2017-07-16T18:53:28.863Z,89.87
2017-07-16T18:56:01.336Z,89.96
2017-07-16T18:58:33.893Z,89.99
2017-07-16T19:01:07.093Z,89.97
2017-07-16T19:03:39.748Z,89.91
2017-07-16T19:06:12.033Z,89.78
2017-07-16T19:08:44.542Z,89.75
2017-07-16T19:11:16.845Z,89.60
2017-07-16T19:13:50.161Z,89.58
2017-07-16T19:16:22.649Z,89.40
2017-07-16T19:18:54.986Z,89.60
2017-07-16T19:21:27.394Z,89.74
2017-07-16T19:23:59.717Z,90.14
2017-07-16T19:26:32.117Z,90.08
2017-07-16T19:29:04.552Z,90.21
2017-07-16T19:31:37.009Z,90.10
2017-07-16T19:34:10.417Z,90.25
2017-07-16T19:36:42.998Z,90.31
2017-07-16T19:39:15.522Z,90.25
2017-07-16T19:41:48.042Z,90.12
2017-07-16T19:44:20.590Z,89.73
2017-07-16T19:46:52.906Z,89.17
2017-07-16T19:49:25.323Z,88.62
2017-07-16T19:51:57.720Z,88.83
2017-07-16T19:54:30.247Z,88.44
2017-07-16T19:57:02.579Z,88.53
2017-07-16T19:59:34.901Z,88.77
2017-07-16T20:02:07.505Z,88.67
2017-07-16T20:04:39.711Z,88.49
2017-07-16T20:07:12.026Z,88.68
2017-07-16T20:09:44.486Z,88.60
2017-07-16T20:12:16.813Z,88.76
2017-07-16T20:14:49.292Z,89.04
2017-07-16T20:17:21.701Z,89.25
2017-07-16T20:19:54.536Z,89.35
2017-07-16T20:22:26.484Z,89.46
2017-07-16T20:24:58.817Z,89.49
2017-07-16T20:27:31.058Z,89.51
2017-07-16T20:30:03.485Z,89.47
2017-07-16T20:32:35.934Z,89.51
2017-07-16T20:35:08.270Z,89.73
2017-07-16T20:37:40.572Z,89.71
2017-07-16T20:40:13.166Z,89.65
2017-07-16T20:42:45.533Z,89.72
2017-07-16T20:45:17.972Z,89.71
2017-07-16T20:47:50.402Z,89.50
2017-07-16T20:50:22.832Z,89.49
2017-07-16T20:52:55.964Z,89.63
2017-07-16T20:55:28.686Z,89.69
2017-07-16T20:58:01.165Z,89.81
2017-07-16T21:00:33.385Z,89.70
2017-07-16T21:03:05.721Z,89.67
2017-07-16T21:05:38.213Z,89.66
2017-07-16T21:08:10.599Z,89.72
2017-07-16T21:10:42.892Z,89.80
2017-07-16T21:13:15.608Z,89.58
2017-07-16T21:15:47.797Z,89.41
2017-07-16T21:18:20.210Z,89.55
2017-07-16T21:20:53.753Z,89.67
2017-07-16T21:23:25.665Z,89.58
2017-07-16T21:25:57.934Z,89.42
2017-07-16T21:28:30.277Z,89.05
2017-07-16T21:31:02.797Z,88.70
2017-07-16T21:33:35.253Z,88.86
2017-07-16T21:36:07.676Z,88.71
2017-07-16T21:38:40.358Z,88.85
2017-07-16T21:41:12.606Z,88.80
2017-07-16T21:43:44.961Z,88.95
2017-07-16T21:46:17.458Z,89.14
2017-07-16T21:48:50.064Z,88.98
2017-07-16T21:51:22.377Z,88.88
2017-07-16T21:53:55.070Z,89.12
2017-07-16T21:56:27.526Z,89.20
2017-07-16T21:58:59.893Z,89.26
2017-07-16T22:01:32.365Z,88.96
2017-07-16T22:04:04.653Z,88.83
2017-07-16T22:06:37.064Z,89.00
2017-07-16T22:09:09.393Z,89.06
2017-07-16T22:11:41.965Z,89.03
2017-07-16T22:14:14.336Z,89.15
2017-07-16T22:16:46.925Z,89.30
2017-07-16T22:19:19.374Z,89.28
2017-07-16T22:21:51.843Z,89.25
2017-07-16T22:24:24.204Z,89.20
2017-07-16T22:26:56.488Z,89.16
2017-07-16T22:29:28.785Z,89.20
2017-07-16T22:32:01.196Z,89.23
2017-07-16T22:34:33.539Z,89.38
2017-07-16T22:37:05.736Z,89.73
2017-07-16T22:39:38.091Z,89.61
2017-07-16T22:42:10.525Z,89.87
2017-07-16T22:44:42.940Z,89.92
2017-07-16T22:47:15.402Z,89.78
2017-07-16T22:49:47.786Z,89.89
2017-07-16T22:52:20.205Z,89.88
2017-07-16T22:54:52.534Z,89.95
2017-07-16T22:57:24.850Z,89.78
2017-07-16T22:59:57.278Z,89.82
2017-07-16T23:02:29.677Z,90.01
2017-07-16T23:05:02.289Z,90.01
2017-07-16T23:07:34.497Z,90.03
2017-07-16T23:10:07.052Z,89.79
2017-07-16T23:12:39.458Z,89.79
2017-07-16T23:15:11.893Z,89.79
2017-07-16T23:17:44.417Z,90.03
2017-07-16T23:20:16.944Z,90.17
2017-07-16T23:22:49.353Z,90.34
2017-07-16T23:25:21.754Z,90.37
2017-07-16T23:27:54.302Z,90.34
2017-07-16T23:30:26.575Z,90.36
2017-07-16T23:32:58.878Z,90.37
2017-07-16T23:35:31.300Z,90.28
2017-07-16T23:38:03.806Z,90.21
2017-07-16T23:40:36.168Z,90.03
2017-07-16T23:43:08.648Z,90.11
2017-07-16T23:45:41.111Z,90.10
2017-07-16T23:48:13.393Z,90.33
2017-07-16T23:50:45.856Z,90.59
2017-07-16T23:53:18.264Z,90.76
2017-07-16T23:55:50.713Z,90.76
2017-07-16T23:58:23.469Z,91.13
